createdAt,value
2023-03-18T00:02:06.878Z,100258.34
2023-03-18T00:04:35.532Z,100251.41
2023-03-18T00:07:04.355Z,100252.25
2023-03-18T00:09:33.010Z,100247.00
2023-03-18T00:12:01.631Z,100247.00
2023-03-18T00:14:29.942Z,100249.63
2023-03-18T00:16:58.601Z,100253.06
2023-03-18T00:19:28.166Z,100257.47
2023-03-18T00:21:57.618Z,100265.28
2023-03-18T00:24:27.776Z,100260.03
2023-03-18T00:26:57.142Z,100256.53
2023-03-18T00:29:26.066Z,100258.25
2023-03-18T00:31:54.597Z,100253.84
2023-03-18T00:34:23.115Z,100266.09
2023-03-18T00:36:56.928Z,100262.53
2023-03-18T00:39:28.797Z,100273.03
2023-03-18T00:41:58.206Z,100273.03
2023-03-18T00:44:27.303Z,100269.56
2023-03-18T00:46:55.876Z,100264.34
2023-03-18T00:49:24.966Z,100272.28
2023-03-18T00:51:54.545Z,100271.47
2023-03-18T00:54:24.729Z,100267.25
2023-03-18T00:56:53.957Z,100279.56
2023-03-18T00:59:22.540Z,100272.63
2023-03-18T01:01:51.901Z,100272.53
2023-03-18T01:04:21.449Z,100277.75
2023-03-18T01:06:49.965Z,100275.06
2023-03-18T01:09:19.756Z,100282.06
2023-03-18T01:11:48.242Z,100282.84
2023-03-18T01:14:16.891Z,100276.69
2023-03-18T01:16:46.881Z,100280.22
2023-03-18T01:19:15.994Z,100287.31
2023-03-18T01:21:44.877Z,100287.41
2023-03-18T01:24:13.518Z,100287.50
2023-03-18T01:26:43.066Z,100291.13
2023-03-18T01:29:12.446Z,100287.72
2023-03-18T01:31:41.016Z,100285.97
2023-03-18T01:34:16.412Z,100272.06
2023-03-18T01:36:49.781Z,100272.91
2023-03-18T01:39:19.189Z,100272.91
2023-03-18T01:41:48.785Z,100285.19
2023-03-18T01:44:24.696Z,100283.63
2023-03-18T01:46:56.827Z,100273.97
2023-03-18T01:49:32.490Z,100280.94
2023-03-18T01:52:07.641Z,100279.22
2023-03-18T01:54:44.574Z,100280.16
2023-03-18T01:57:17.340Z,100281.03
2023-03-18T01:59:49.637Z,100284.63
2023-03-18T02:02:18.936Z,100288.22
2023-03-18T02:04:51.101Z,100277.72
2023-03-18T02:07:24.283Z,100276.00
2023-03-18T02:09:54.185Z,100276.00
2023-03-18T02:12:28.643Z,100265.50
2023-03-18T02:15:02.549Z,100262.88
2023-03-18T02:17:35.348Z,100262.94
2023-03-18T02:20:22.424Z,100265.59
2023-03-18T02:22:57.605Z,100275.16
2023-03-18T02:25:40.291Z,100267.28
2023-03-18T02:28:14.734Z,100271.66
2023-03-18T02:30:47.485Z,100272.47
2023-03-18T02:33:19.282Z,100264.59
2023-03-18T02:35:54.744Z,100265.50
2023-03-18T02:38:23.440Z,100268.97
2023-03-18T02:40:52.346Z,100261.09
2023-03-18T02:43:28.940Z,100258.53
2023-03-18T02:46:13.889Z,100265.59
2023-03-18T02:48:47.330Z,100260.34
2023-03-18T02:51:17.703Z,100264.69
2023-03-18T02:53:47.748Z,100269.03
2023-03-18T02:56:16.347Z,100277.72
2023-03-18T02:58:47.325Z,100280.34
2023-03-18T03:01:17.467Z,100289.09
2023-03-18T03:03:46.066Z,100288.22
2023-03-18T03:06:15.801Z,100288.22
2023-03-18T03:08:45.063Z,100285.53
2023-03-18T03:11:14.145Z,100290.84
2023-03-18T03:13:45.364Z,100299.50
2023-03-18T03:16:18.552Z,100293.47
2023-03-18T03:18:47.240Z,100294.38
2023-03-18T03:21:16.966Z,100283.13
2023-03-18T03:23:47.692Z,100291.94
2023-03-18T03:26:16.916Z,100298.25
2023-03-18T03:28:45.923Z,100300.19
2023-03-18T03:31:17.300Z,100290.72
2023-03-18T03:33:45.967Z,100288.19
2023-03-18T03:36:16.973Z,100301.31
2023-03-18T03:38:45.902Z,100292.63
2023-03-18T03:41:15.808Z,100293.53
2023-03-18T03:43:44.703Z,100286.56
2023-03-18T03:46:13.325Z,100288.28
2023-03-18T03:48:43.183Z,100287.38
2023-03-18T03:51:15.816Z,100283.84
2023-03-18T03:53:46.150Z,100288.19
2023-03-18T03:56:15.669Z,100292.53
2023-03-18T03:58:44.754Z,100291.69
2023-03-18T04:01:13.589Z,100298.63
2023-03-18T04:03:43.559Z,100301.22
2023-03-18T04:06:13.196Z,100292.44
2023-03-18T04:08:48.232Z,100294.13
2023-03-18T04:11:17.159Z,100288.88
2023-03-18T04:13:45.687Z,100298.53
2023-03-18T04:16:14.684Z,100310.84
2023-03-18T04:18:44.382Z,100310.91
2023-03-18T04:21:13.118Z,100312.75
2023-03-18T04:23:46.552Z,100318.09
2023-03-18T04:26:15.115Z,100319.91
2023-03-18T04:28:43.839Z,100309.47
2023-03-18T04:31:16.658Z,100316.38
2023-03-18T04:33:46.388Z,100324.19
2023-03-18T04:36:15.515Z,100311.09
2023-03-18T04:38:44.596Z,100317.16
2023-03-18T04:41:13.093Z,100321.47
2023-03-18T04:43:41.550Z,100322.41
2023-03-18T04:46:12.026Z,100323.25
2023-03-18T04:48:41.041Z,100315.41
2023-03-18T04:51:12.572Z,100315.50
2023-03-18T04:53:42.037Z,100319.06
2023-03-18T04:56:11.743Z,100310.34
2023-03-18T04:58:47.962Z,100306.84
2023-03-18T05:01:21.116Z,100305.94
2023-03-18T05:03:50.295Z,100311.19
2023-03-18T05:06:27.684Z,100326.00
2023-03-18T05:09:00.075Z,100324.19
2023-03-18T05:11:33.623Z,100321.59
2023-03-18T05:14:09.348Z,100320.66
2023-03-18T05:16:45.982Z,100319.78
2023-03-18T05:19:15.771Z,100314.53
2023-03-18T05:21:52.797Z,100321.47
2023-03-18T05:24:21.985Z,100317.94
2023-03-18T05:26:50.526Z,100321.41
2023-03-18T05:29:21.928Z,100324.03
2023-03-18T05:32:00.328Z,100310.94
2023-03-18T05:34:31.354Z,100328.41
2023-03-18T05:37:02.079Z,100322.31
2023-03-18T05:39:31.472Z,100329.25
2023-03-18T05:42:00.152Z,100328.34
2023-03-18T05:44:30.738Z,100328.34
2023-03-18T05:47:02.716Z,100333.56
2023-03-18T05:49:57.303Z,100335.31
2023-03-18T05:52:28.328Z,100339.66
2023-03-18T05:55:01.561Z,100344.00
2023-03-18T05:57:34.680Z,100348.34
2023-03-18T06:00:08.188Z,100348.34
2023-03-18T06:02:47.336Z,100346.53
2023-03-18T06:05:18.400Z,100351.78
2023-03-18T06:07:49.485Z,100352.66
2023-03-18T06:10:18.351Z,100358.75
2023-03-18T06:12:49.253Z,100362.25
2023-03-18T06:15:21.202Z,100358.75
2023-03-18T06:17:50.476Z,100364.88
2023-03-18T06:20:19.716Z,100358.75
2023-03-18T06:22:50.167Z,100367.41
2023-03-18T06:25:21.136Z,100363.91
2023-03-18T06:27:50.972Z,100356.88
2023-03-18T06:30:22.422Z,100353.41
2023-03-18T06:32:51.651Z,100358.66
2023-03-18T06:35:20.552Z,100360.47
2023-03-18T06:37:50.196Z,100362.25
2023-03-18T06:40:18.733Z,100366.72
2023-03-18T06:42:48.921Z,100368.56
2023-03-18T06:45:28.363Z,100368.66
2023-03-18T06:48:05.752Z,100369.53
2023-03-18T06:50:37.045Z,100371.25
2023-03-18T06:53:07.402Z,100372.94
2023-03-18T06:55:36.922Z,100374.59
2023-03-18T06:58:06.571Z,100376.19
2023-03-18T07:00:45.446Z,100374.31
2023-03-18T07:03:19.732Z,100377.63
2023-03-18T07:05:48.674Z,100377.47
2023-03-18T07:08:18.334Z,100376.47
2023-03-18T07:10:47.143Z,100378.06
2023-03-18T07:13:17.304Z,100382.91
2023-03-18T07:15:46.495Z,100384.16
2023-03-18T07:18:15.115Z,100386.91
2023-03-18T07:20:43.829Z,100388.50
2023-03-18T07:23:12.364Z,100395.19
2023-03-18T07:25:44.638Z,100394.75
2023-03-18T07:28:13.211Z,100388.75
2023-03-18T07:30:41.741Z,100383.94
2023-03-18T07:33:10.383Z,100388.03
2023-03-18T07:35:41.015Z,100388.97
2023-03-18T07:38:10.461Z,100389.22
2023-03-18T07:40:38.935Z,100386.69
2023-03-18T07:43:09.177Z,100387.19
2023-03-18T07:45:38.243Z,100388.41
2023-03-18T07:48:07.619Z,100386.66
2023-03-18T07:50:36.409Z,100382.59
2023-03-18T07:53:04.621Z,100376.03
2023-03-18T07:55:34.566Z,100373.94
2023-03-18T07:58:04.610Z,100379.06
2023-03-18T08:00:34.228Z,100375.13
2023-03-18T08:03:03.861Z,100371.41
2023-03-18T08:05:34.245Z,100372.25
2023-03-18T08:08:04.371Z,100386.53
2023-03-18T08:10:32.889Z,100388.53
2023-03-18T08:13:01.263Z,100396.69
2023-03-18T08:15:30.210Z,100403.03
2023-03-18T08:18:00.048Z,100406.44
2023-03-18T08:20:28.781Z,100392.34
2023-03-18T08:22:57.148Z,100387.59
2023-03-18T08:25:25.682Z,100393.16
2023-03-18T08:27:54.288Z,100384.88
2023-03-18T08:30:25.474Z,100385.84
2023-03-18T08:32:54.105Z,100386.34
2023-03-18T08:35:23.671Z,100383.13
2023-03-18T08:37:52.456Z,100382.63
2023-03-18T08:40:20.946Z,100380.38
2023-03-18T08:42:49.658Z,100379.81
2023-03-18T08:45:18.101Z,100387.94
2023-03-18T08:47:47.148Z,100386.69
2023-03-18T08:50:15.723Z,100397.59
2023-03-18T08:52:46.075Z,100390.94
2023-03-18T08:55:14.319Z,100379.75
2023-03-18T08:57:42.932Z,100379.81
2023-03-18T09:00:13.401Z,100392.59
2023-03-18T09:02:41.654Z,100388.34
2023-03-18T09:05:10.492Z,100391.13
2023-03-18T09:07:39.003Z,100397.72
2023-03-18T09:10:10.273Z,100400.53
2023-03-18T09:12:38.801Z,100400.31
2023-03-18T09:15:10.027Z,100389.22
2023-03-18T09:17:56.474Z,100389.50
2023-03-18T09:20:28.926Z,100375.38
2023-03-18T09:22:57.577Z,100378.75
2023-03-18T09:25:27.865Z,100373.31
2023-03-18T09:27:56.515Z,100361.22
2023-03-18T09:30:26.703Z,100362.25
2023-03-18T09:32:56.521Z,100364.03
2023-03-18T09:35:25.292Z,100371.44
2023-03-18T09:37:53.866Z,100367.19
2023-03-18T09:40:29.417Z,100356.53
2023-03-18T09:43:13.487Z,100353.63
2023-03-18T09:45:57.150Z,100358.09
2023-03-18T09:48:55.684Z,100367.00
2023-03-18T09:51:41.883Z,100371.09
2023-03-18T09:54:17.481Z,100363.88
2023-03-18T09:56:48.334Z,100348.69
2023-03-18T09:59:25.442Z,100354.03
2023-03-18T10:01:56.665Z,100351.16
2023-03-18T10:04:30.778Z,100353.81
2023-03-18T10:07:05.289Z,100357.78
2023-03-18T10:09:42.625Z,100345.72
2023-03-18T10:12:22.677Z,100353.28
2023-03-18T10:15:05.287Z,100347.97
2023-03-18T10:17:40.033Z,100347.72
2023-03-18T10:20:16.890Z,100346.28
2023-03-18T10:23:12.826Z,100343.66
2023-03-18T10:25:48.562Z,100342.19
2023-03-18T10:28:49.163Z,100345.09
2023-03-18T10:31:34.211Z,100344.13
2023-03-18T10:34:06.435Z,100341.22
2023-03-18T10:36:50.944Z,100340.72
2023-03-18T10:39:23.893Z,100334.63
2023-03-18T10:41:55.005Z,100337.78
2023-03-18T10:44:30.485Z,100334.63
2023-03-18T10:47:03.130Z,100339.75
2023-03-18T10:49:36.506Z,100337.81
2023-03-18T10:52:15.271Z,100340.25
2023-03-18T10:54:50.874Z,100344.63
2023-03-18T10:57:21.460Z,100346.19
2023-03-18T10:59:52.706Z,100347.41
2023-03-18T11:02:27.620Z,100348.16
2023-03-18T11:05:00.816Z,100341.22
2023-03-18T11:07:31.189Z,100339.25
2023-03-18T11:10:15.065Z,100339.75
2023-03-18T11:12:44.754Z,100339.81
2023-03-18T11:15:14.658Z,100335.19
2023-03-18T11:17:44.044Z,100329.56
2023-03-18T11:20:24.630Z,100329.94
2023-03-18T11:22:57.444Z,100330.13
2023-03-18T11:25:29.189Z,100336.63
2023-03-18T11:28:03.658Z,100328.28
2023-03-18T11:30:46.088Z,100327.66
2023-03-18T11:33:17.360Z,100330.63
2023-03-18T11:35:48.295Z,100337.28
2023-03-18T11:38:20.886Z,100329.88
2023-03-18T11:40:49.897Z,100318.78
2023-03-18T11:43:22.215Z,100315.38
2023-03-18T11:45:58.713Z,100321.31
2023-03-18T11:48:35.650Z,100318.09
2023-03-18T11:51:29.177Z,100314.72
2023-03-18T11:54:20.232Z,100311.59
2023-03-18T11:56:52.607Z,100310.91
2023-03-18T11:59:33.939Z,100305.53
2023-03-18T12:02:48.357Z,100306.38
2023-03-18T12:05:53.327Z,100291.09
2023-03-18T12:08:33.966Z,100290.81
2023-03-18T12:11:12.885Z,100288.13
2023-03-18T12:13:55.519Z,100289.28
2023-03-18T12:16:48.694Z,100296.66
2023-03-18T12:19:55.081Z,100287.03
2023-03-18T12:23:13.620Z,100284.09
2023-03-18T12:26:01.862Z,100286.22
2023-03-18T12:28:43.016Z,100275.75
2023-03-18T12:31:46.637Z,100276.69
2023-03-18T12:34:31.854Z,100279.03
2023-03-18T12:37:22.336Z,100280.56
2023-03-18T12:40:31.134Z,100274.59
2023-03-18T12:43:46.464Z,100275.28
2023-03-18T12:46:27.173Z,100265.78
2023-03-18T12:49:03.740Z,100274.31
2023-03-18T12:51:41.933Z,100276.81
2023-03-18T12:54:20.561Z,100281.13
2023-03-18T12:56:53.876Z,100282.03
2023-03-18T12:59:32.548Z,100283.09
2023-03-18T13:02:37.218Z,100270.22
2023-03-18T13:05:16.795Z,100271.06
2023-03-18T13:07:50.629Z,100260.50
2023-03-18T13:10:24.308Z,100265.47
2023-03-18T13:12:56.446Z,100270.66
2023-03-18T13:15:32.819Z,100270.28
2023-03-18T13:18:14.639Z,100268.97
2023-03-18T13:20:44.814Z,100264.88
2023-03-18T13:23:53.388Z,100264.66
2023-03-18T13:26:35.377Z,100259.81
2023-03-18T13:29:19.894Z,100257.63
2023-03-18T13:31:58.804Z,100265.16
2023-03-18T13:34:57.586Z,100250.59
2023-03-18T13:37:54.634Z,100259.59
2023-03-18T13:40:42.692Z,100244.69
2023-03-18T13:43:16.814Z,100249.13
2023-03-18T13:45:48.876Z,100252.66
2023-03-18T13:48:19.694Z,100255.78
2023-03-18T13:50:51.622Z,100253.50
2023-03-18T13:53:26.428Z,100246.63
2023-03-18T13:56:05.052Z,100250.56
2023-03-18T13:58:45.179Z,100250.41
2023-03-18T14:01:29.705Z,100237.63
2023-03-18T14:04:03.038Z,100242.31
2023-03-18T14:06:57.750Z,100235.03
2023-03-18T14:09:47.202Z,100236.63
2023-03-18T14:12:39.818Z,100242.13
2023-03-18T14:15:38.780Z,100235.94
2023-03-18T14:18:28.009Z,100239.66
2023-03-18T14:21:04.595Z,100230.09
2023-03-18T14:23:44.197Z,100231.16
2023-03-18T14:26:24.508Z,100219.22
2023-03-18T14:29:03.443Z,100224.31
2023-03-18T14:31:51.895Z,100221.16
2023-03-18T14:34:33.873Z,100214.69
2023-03-18T14:37:31.301Z,100221.06
2023-03-18T14:40:08.844Z,100225.53
2023-03-18T14:42:56.672Z,100225.94
2023-03-18T14:45:29.171Z,100223.63
2023-03-18T14:48:01.573Z,100217.19
2023-03-18T14:50:39.275Z,100214.13
2023-03-18T14:53:18.092Z,100222.59
2023-03-18T14:55:46.613Z,100220.69
2023-03-18T14:58:18.239Z,100221.53
2023-03-18T15:00:49.646Z,100213.28
2023-03-18T15:03:25.526Z,100210.28
2023-03-18T15:06:00.370Z,100212.44
2023-03-18T15:08:46.675Z,100207.47
2023-03-18T15:11:19.320Z,100212.09
2023-03-18T15:13:48.156Z,100207.09
2023-03-18T15:16:23.033Z,100199.34
2023-03-18T15:18:56.194Z,100203.91
2023-03-18T15:21:30.172Z,100205.31
2023-03-18T15:24:01.906Z,100195.53
2023-03-18T15:26:34.342Z,100190.38
2023-03-18T15:29:21.893Z,100202.00
2023-03-18T15:31:50.932Z,100191.56
2023-03-18T15:34:23.307Z,100190.16
2023-03-18T15:36:56.943Z,100188.75
2023-03-18T15:39:35.606Z,100194.47
2023-03-18T15:42:13.236Z,100187.91
2023-03-18T15:44:44.077Z,100194.63
2023-03-18T15:47:17.611Z,100195.53
2023-03-18T15:49:54.414Z,100203.41
2023-03-18T15:52:26.713Z,100190.25
2023-03-18T15:54:55.582Z,100194.56
2023-03-18T15:57:33.134Z,100194.88
2023-03-18T16:00:01.793Z,100189.66
2023-03-18T16:02:40.377Z,100189.88
2023-03-18T16:05:19.082Z,100188.66
2023-03-18T16:07:48.091Z,100187.16
2023-03-18T16:10:22.227Z,100185.75
2023-03-18T16:12:54.647Z,100190.41
2023-03-18T16:15:26.322Z,100187.75
2023-03-18T16:17:56.815Z,100188.44
2023-03-18T16:20:28.832Z,100187.81
2023-03-18T16:22:59.711Z,100185.28
2023-03-18T16:25:29.052Z,100190.13
2023-03-18T16:28:00.704Z,100194.50
2023-03-18T16:30:33.128Z,100186.63
2023-03-18T16:33:01.475Z,100189.38
2023-03-18T16:35:36.073Z,100191.97
2023-03-18T16:38:04.558Z,100194.28
2023-03-18T16:40:33.777Z,100188.88
2023-03-18T16:43:02.222Z,100195.88
2023-03-18T16:45:33.838Z,100194.19
2023-03-18T16:48:06.918Z,100194.50
2023-03-18T16:50:39.315Z,100203.44
2023-03-18T16:53:17.351Z,100208.78
2023-03-18T16:55:47.051Z,100212.50
2023-03-18T16:58:19.520Z,100211.13
2023-03-18T17:00:49.713Z,100218.00
2023-03-18T17:03:20.139Z,100217.81
2023-03-18T17:05:52.043Z,100220.22
2023-03-18T17:08:21.885Z,100223.72
2023-03-18T17:10:53.667Z,100229.97
2023-03-18T17:13:25.928Z,100225.50
2023-03-18T17:15:55.027Z,100235.41
2023-03-18T17:18:25.466Z,100231.91
2023-03-18T17:20:55.332Z,100245.44
2023-03-18T17:23:26.765Z,100240.06
2023-03-18T17:25:56.913Z,100244.34
2023-03-18T17:28:34.450Z,100240.78
2023-03-18T17:31:03.402Z,100243.25
2023-03-18T17:33:34.616Z,100246.47
2023-03-18T17:36:06.079Z,100247.22
2023-03-18T17:38:35.455Z,100248.69
2023-03-18T17:41:07.289Z,100244.13
2023-03-18T17:43:37.878Z,100251.00
2023-03-18T17:46:06.992Z,100249.00
2023-03-18T17:48:37.389Z,100244.25
2023-03-18T17:51:11.989Z,100251.81
2023-03-18T17:53:43.075Z,100253.97
2023-03-18T17:56:15.737Z,100256.09
2023-03-18T17:58:46.752Z,100259.19
2023-03-18T18:01:18.299Z,100255.22
2023-03-18T18:03:47.584Z,100262.63
2023-03-18T18:06:21.844Z,100262.97
2023-03-18T18:08:50.915Z,100260.59
2023-03-18T18:11:22.846Z,100261.78
2023-03-18T18:13:53.060Z,100258.50
2023-03-18T18:16:21.937Z,100264.16
2023-03-18T18:18:50.840Z,100266.19
2023-03-18T18:21:23.585Z,100259.53
2023-03-18T18:23:52.369Z,100272.16
2023-03-18T18:26:22.940Z,100265.50
2023-03-18T18:28:53.868Z,100272.94
2023-03-18T18:31:23.827Z,100265.34
2023-03-18T18:33:54.781Z,100264.78
2023-03-18T18:36:27.973Z,100259.81
2023-03-18T18:38:56.831Z,100270.84
2023-03-18T18:41:25.902Z,100268.41
2023-03-18T18:43:55.512Z,100264.25
2023-03-18T18:46:24.993Z,100276.84
2023-03-18T18:48:53.887Z,100273.56
2023-03-18T18:51:25.531Z,100273.91
2023-03-18T18:53:55.685Z,100278.66
2023-03-18T18:56:32.132Z,100279.78
2023-03-18T18:59:01.417Z,100280.22
2023-03-18T19:01:30.955Z,100283.16
2023-03-18T19:03:59.290Z,100277.31
2023-03-18T19:06:31.548Z,100279.56
2023-03-18T19:09:03.876Z,100279.88
2023-03-18T19:11:33.314Z,100278.53
2023-03-18T19:14:21.884Z,100278.84
2023-03-18T19:16:50.493Z,100285.13
2023-03-18T19:19:22.074Z,100282.88
2023-03-18T19:21:51.829Z,100283.25
2023-03-18T19:24:28.029Z,100286.34
2023-03-18T19:26:58.507Z,100292.91
2023-03-18T19:29:27.568Z,100289.78
2023-03-18T19:31:56.191Z,100297.06
2023-03-18T19:34:24.887Z,100294.72
2023-03-18T19:36:56.664Z,100294.06
2023-03-18T19:39:27.676Z,100293.47
2023-03-18T19:41:56.230Z,100294.75
2023-03-18T19:44:26.681Z,100295.97
2023-03-18T19:46:58.437Z,100297.16
2023-03-18T19:49:32.695Z,100295.75
2023-03-18T19:52:03.661Z,100300.34
2023-03-18T19:54:34.798Z,100302.31
2023-03-18T19:57:06.712Z,100299.97
2023-03-18T19:59:39.670Z,100304.53
2023-03-18T20:02:23.393Z,100305.66
2023-03-18T20:04:53.340Z,100307.47
2023-03-18T20:07:25.594Z,100314.63
2023-03-18T20:09:55.101Z,100311.31
2023-03-18T20:12:27.173Z,100321.19
2023-03-18T20:14:55.732Z,100323.13
2023-03-18T20:17:37.184Z,100327.53
2023-03-18T20:20:07.739Z,100331.97
2023-03-18T20:22:41.755Z,100335.56
2023-03-18T20:25:19.978Z,100342.03
2023-03-18T20:27:50.486Z,100341.41
2023-03-18T20:30:31.580Z,100339.13
2023-03-18T20:33:03.995Z,100335.69
2023-03-18T20:35:34.672Z,100335.81
2023-03-18T20:38:14.162Z,100330.53
2023-03-18T20:40:46.217Z,100331.38
2023-03-18T20:43:16.605Z,100339.25
2023-03-18T20:45:45.530Z,100335.69
2023-03-18T20:48:14.248Z,100335.69
2023-03-18T20:50:42.922Z,100336.53
2023-03-18T20:53:18.684Z,100333.97
2023-03-18T20:55:47.459Z,100337.38
2023-03-18T20:58:18.030Z,100335.75
2023-03-18T21:00:47.535Z,100327.09
2023-03-18T21:03:24.385Z,100328.97
2023-03-18T21:05:56.065Z,100329.09
2023-03-18T21:08:27.114Z,100325.66
2023-03-18T21:10:56.044Z,100332.75
2023-03-18T21:13:29.007Z,100335.50
2023-03-18T21:15:58.965Z,100340.09
2023-03-18T21:18:27.653Z,100338.50
2023-03-18T21:20:56.947Z,100342.09
2023-03-18T21:23:28.535Z,100339.72
2023-03-18T21:25:57.717Z,100342.53
2023-03-18T21:28:28.345Z,100347.94
2023-03-18T21:30:58.519Z,100349.75
2023-03-18T21:33:29.886Z,100349.97
2023-03-18T21:35:58.882Z,100352.81
2023-03-18T21:38:31.545Z,100352.19
2023-03-18T21:41:01.925Z,100353.34
2023-03-18T21:43:34.029Z,100351.06
2023-03-18T21:46:03.931Z,100353.13
2023-03-18T21:48:32.627Z,100356.81
2023-03-18T21:51:01.358Z,100360.44
2023-03-18T21:53:31.128Z,100362.41
2023-03-18T21:56:00.129Z,100364.22
2023-03-18T21:58:29.277Z,100365.16
2023-03-18T22:01:00.627Z,100358.16
2023-03-18T22:03:31.475Z,100362.56
2023-03-18T22:06:00.019Z,100359.88
2023-03-18T22:08:28.322Z,100354.63
2023-03-18T22:10:58.042Z,100362.53
2023-03-18T22:13:27.902Z,100355.53
2023-03-18T22:15:57.650Z,100355.63
2023-03-18T22:18:26.353Z,100353.06
2023-03-18T22:20:54.802Z,100354.91
2023-03-18T22:23:25.326Z,100362.03
2023-03-18T22:25:57.448Z,100363.06
2023-03-18T22:28:28.025Z,100363.16
2023-03-18T22:30:57.037Z,100363.38
2023-03-18T22:33:29.062Z,100368.81
2023-03-18T22:35:58.165Z,100361.16
2023-03-18T22:38:27.676Z,100364.78
2023-03-18T22:40:58.722Z,100359.63
2023-03-18T22:43:33.373Z,100368.50
2023-03-18T22:46:04.286Z,100362.34
2023-03-18T22:48:33.242Z,100358.00
2023-03-18T22:51:02.608Z,100362.44
2023-03-18T22:53:33.846Z,100372.22
2023-03-18T22:56:10.047Z,100363.63
2023-03-18T22:58:39.387Z,100366.34
2023-03-18T23:01:08.203Z,100370.75
2023-03-18T23:03:40.335Z,100372.59
2023-03-18T23:06:14.523Z,100371.72
2023-03-18T23:08:43.249Z,100369.16
2023-03-18T23:11:13.348Z,100377.06
2023-03-18T23:13:43.582Z,100384.16
2023-03-18T23:16:17.024Z,100380.72
2023-03-18T23:18:45.941Z,100389.44
2023-03-18T23:21:18.140Z,100390.31
2023-03-18T23:23:46.550Z,100387.69
2023-03-18T23:26:16.839Z,100391.25
2023-03-18T23:28:45.844Z,100388.59
2023-03-18T23:31:16.514Z,100389.44
2023-03-18T23:33:45.750Z,100399.00
2023-03-18T23:36:14.456Z,100401.63
2023-03-18T23:38:43.072Z,100405.97
2023-03-18T23:41:11.640Z,100398.19
2023-03-18T23:43:41.327Z,100396.59
2023-03-18T23:46:09.865Z,100401.94
2023-03-18T23:48:38.400Z,100391.53
2023-03-18T23:51:07.057Z,100398.59
2023-03-18T23:53:35.787Z,100402.16
2023-03-18T23:56:04.429Z,100396.91
2023-03-18T23:58:32.930Z,100405.69
